createdAt,value
2023-04-09T00:01:21.984Z,9.61
2023-04-09T00:03:48.474Z,9.62
2023-04-09T00:06:15.616Z,9.62
2023-04-09T00:08:42.004Z,9.58
2023-04-09T00:11:08.510Z,9.60
2023-04-09T00:13:39.104Z,9.61
2023-04-09T00:16:07.508Z,9.63
2023-04-09T00:18:34.135Z,9.62
2023-04-09T00:21:00.624Z,9.62
2023-04-09T00:23:27.113Z,9.60
2023-04-09T00:25:53.654Z,9.59
2023-04-09T00:28:20.164Z,9.59
2023-04-09T00:30:46.719Z,9.54
2023-04-09T00:33:13.134Z,9.55
2023-04-09T00:35:39.572Z,9.54
2023-04-09T00:38:06.223Z,9.50
2023-04-09T00:40:32.954Z,9.51
2023-04-09T00:42:59.443Z,9.52
2023-04-09T00:45:26.025Z,9.53
2023-04-09T00:47:53.145Z,9.56
2023-04-09T00:50:19.866Z,9.52
2023-04-09T00:52:46.397Z,9.55
2023-04-09T00:55:13.753Z,9.53
2023-04-09T00:57:40.232Z,9.47
2023-04-09T01:00:07.808Z,9.45
2023-04-09T01:02:34.683Z,9.44
2023-04-09T01:05:01.506Z,9.43
2023-04-09T01:07:36.098Z,9.43
2023-04-09T01:10:27.865Z,9.43
2023-04-09T01:13:28.265Z,9.44
2023-04-09T01:15:59.247Z,9.41
2023-04-09T01:18:50.583Z,9.35
2023-04-09T01:21:20.460Z,9.37
2023-04-09T01:24:32.019Z,9.37
2023-04-09T01:27:05.404Z,9.37
2023-04-09T01:29:51.488Z,9.37
2023-04-09T01:32:20.582Z,9.36
2023-04-09T01:34:48.368Z,9.33
2023-04-09T01:37:16.763Z,9.35
2023-04-09T01:39:44.186Z,9.37
2023-04-09T01:42:12.133Z,9.37
2023-04-09T01:44:40.165Z,9.36
2023-04-09T01:47:08.609Z,9.35
2023-04-09T01:49:36.806Z,9.37
2023-04-09T01:52:03.873Z,9.35
2023-04-09T01:54:30.316Z,9.36
2023-04-09T01:56:57.694Z,9.34
2023-04-09T01:59:24.373Z,9.35
2023-04-09T02:01:58.362Z,9.35
2023-04-09T02:04:34.388Z,9.36
2023-04-09T02:07:15.667Z,9.35
2023-04-09T02:09:45.973Z,9.37
2023-04-09T02:12:16.363Z,9.39
2023-04-09T02:14:46.123Z,9.38
2023-04-09T02:17:13.322Z,9.39
2023-04-09T02:19:47.717Z,9.42
2023-04-09T02:22:15.335Z,9.42
2023-04-09T02:24:41.916Z,9.39
2023-04-09T02:27:08.620Z,9.38
2023-04-09T02:29:35.155Z,9.37
2023-04-09T02:32:01.617Z,9.37
2023-04-09T02:34:28.430Z,9.36
2023-04-09T02:36:55.116Z,9.37
2023-04-09T02:39:21.517Z,9.36
2023-04-09T02:41:48.375Z,9.35
2023-04-09T02:44:14.811Z,9.36
2023-04-09T02:46:42.177Z,9.39
2023-04-09T02:49:08.719Z,9.41
2023-04-09T02:51:36.053Z,9.36
2023-04-09T02:54:03.194Z,9.34
2023-04-09T02:56:29.760Z,9.37
2023-04-09T02:58:56.410Z,9.38
2023-04-09T03:01:23.049Z,9.37
2023-04-09T03:03:49.988Z,9.38
2023-04-09T03:06:18.297Z,9.39
2023-04-09T03:08:44.887Z,9.38
2023-04-09T03:11:11.371Z,9.39
2023-04-09T03:13:38.179Z,9.41
2023-04-09T03:16:05.017Z,9.38
2023-04-09T03:18:31.508Z,9.39
2023-04-09T03:20:57.991Z,9.35
2023-04-09T03:23:25.701Z,9.35
2023-04-09T03:26:03.006Z,9.32
2023-04-09T03:28:33.580Z,9.32
2023-04-09T03:31:00.327Z,9.32
2023-04-09T03:33:27.267Z,9.30
2023-04-09T03:35:55.935Z,9.25
2023-04-09T03:38:35.632Z,9.22
2023-04-09T03:41:07.881Z,9.21
2023-04-09T03:43:34.473Z,9.21
2023-04-09T03:46:01.178Z,9.22
2023-04-09T03:48:27.805Z,9.23
2023-04-09T03:50:56.653Z,9.24
2023-04-09T03:53:33.869Z,9.26
2023-04-09T03:56:04.567Z,9.26
2023-04-09T03:58:31.908Z,9.26
2023-04-09T04:00:58.903Z,9.26
2023-04-09T04:03:39.088Z,9.23
2023-04-09T04:06:34.983Z,9.24
2023-04-09T04:09:22.102Z,9.25
2023-04-09T04:11:53.921Z,9.24
2023-04-09T04:14:22.616Z,9.23
2023-04-09T04:16:54.696Z,9.24
2023-04-09T04:19:26.218Z,9.25
2023-04-09T04:21:52.711Z,9.25
2023-04-09T04:24:19.485Z,9.23
2023-04-09T04:26:45.994Z,9.18
2023-04-09T04:29:15.719Z,9.16
2023-04-09T04:31:55.357Z,9.15
2023-04-09T04:34:24.578Z,9.14
2023-04-09T04:36:59.265Z,9.12
2023-04-09T04:39:31.017Z,9.12
2023-04-09T04:42:02.095Z,9.15
2023-04-09T04:44:28.739Z,9.14
2023-04-09T04:47:04.037Z,9.14
2023-04-09T04:49:31.660Z,9.14
2023-04-09T04:52:00.814Z,9.15
2023-04-09T04:54:27.397Z,9.13
2023-04-09T04:56:57.173Z,9.14
2023-04-09T04:59:38.855Z,9.13
2023-04-09T05:02:07.593Z,9.13
2023-04-09T05:04:57.960Z,9.11
2023-04-09T05:07:33.620Z,9.08
2023-04-09T05:10:00.656Z,9.08
2023-04-09T05:12:32.494Z,9.08
2023-04-09T05:15:00.272Z,9.07
2023-04-09T05:17:26.948Z,9.10
2023-04-09T05:19:54.020Z,9.09
2023-04-09T05:22:27.053Z,9.09
2023-04-09T05:24:53.730Z,9.09
2023-04-09T05:27:22.093Z,9.08
2023-04-09T05:29:49.903Z,9.07
2023-04-09T05:32:16.987Z,9.09
2023-04-09T05:34:44.145Z,9.06
2023-04-09T05:37:10.893Z,9.05
2023-04-09T05:39:38.357Z,9.05
2023-04-09T05:42:04.926Z,9.07
2023-04-09T05:44:50.875Z,9.07
2023-04-09T05:47:19.809Z,9.07
2023-04-09T05:49:58.752Z,9.09
2023-04-09T05:52:25.252Z,9.11
2023-04-09T05:54:52.781Z,9.13
2023-04-09T05:57:26.282Z,9.12
2023-04-09T05:59:58.523Z,9.11
2023-04-09T06:02:25.395Z,9.11
2023-04-09T06:04:53.899Z,9.09
2023-04-09T06:07:20.970Z,9.10
2023-04-09T06:09:47.503Z,9.14
2023-04-09T06:12:14.035Z,9.15
2023-04-09T06:14:41.499Z,9.14
2023-04-09T06:17:08.222Z,9.13
2023-04-09T06:19:34.859Z,9.15
2023-04-09T06:22:01.390Z,9.21
2023-04-09T06:24:27.960Z,9.24
2023-04-09T06:26:54.464Z,9.30
2023-04-09T06:29:23.112Z,9.33
2023-04-09T06:31:50.671Z,9.36
2023-04-09T06:34:17.115Z,9.39
2023-04-09T06:36:44.472Z,9.45
2023-04-09T06:39:10.866Z,9.51
2023-04-09T06:41:37.334Z,9.59
2023-04-09T06:44:11.772Z,9.69
2023-04-09T06:46:38.373Z,9.71
2023-04-09T06:49:05.926Z,9.71
2023-04-09T06:51:32.548Z,9.72
2023-04-09T06:53:59.093Z,9.75
2023-04-09T06:56:25.715Z,9.79
2023-04-09T06:58:52.164Z,9.82
2023-04-09T07:01:18.877Z,9.79
2023-04-09T07:03:46.397Z,9.76
2023-04-09T07:06:12.942Z,9.84
2023-04-09T07:08:39.347Z,9.91
2023-04-09T07:11:05.762Z,10.03
2023-04-09T07:13:33.090Z,10.18
2023-04-09T07:15:59.991Z,10.66
2023-04-09T07:18:27.100Z,10.91
2023-04-09T07:20:53.768Z,11.36
2023-04-09T07:23:20.454Z,11.48
2023-04-09T07:25:47.192Z,11.72
2023-04-09T07:28:13.954Z,11.93
2023-04-09T07:30:40.382Z,11.92
2023-04-09T07:33:06.926Z,12.32
2023-04-09T07:35:34.687Z,12.69
2023-04-09T07:38:01.185Z,13.32
2023-04-09T07:40:27.607Z,13.32
2023-04-09T07:42:55.605Z,13.61
2023-04-09T07:45:22.027Z,13.71
2023-04-09T07:47:48.489Z,14.22
2023-04-09T07:50:14.992Z,14.39
2023-04-09T07:52:41.899Z,15.07
2023-04-09T07:55:08.737Z,15.40
2023-04-09T07:57:35.224Z,15.92
2023-04-09T08:00:02.237Z,15.64
2023-04-09T08:02:39.592Z,16.25
2023-04-09T08:05:07.719Z,16.30
2023-04-09T08:07:34.224Z,15.75
2023-04-09T08:10:00.943Z,16.36
2023-04-09T08:12:27.677Z,17.98
2023-04-09T08:14:54.082Z,18.04
2023-04-09T08:17:20.586Z,19.08
2023-04-09T08:19:47.109Z,19.56
2023-04-09T08:22:13.641Z,19.56
2023-04-09T08:24:40.177Z,19.19
2023-04-09T08:27:06.603Z,19.80
2023-04-09T08:29:34.379Z,21.19
2023-04-09T08:32:01.198Z,20.80
2023-04-09T08:34:28.066Z,20.20
2023-04-09T08:36:54.485Z,19.27
2023-04-09T08:39:21.122Z,18.34
2023-04-09T08:41:48.293Z,18.86
2023-04-09T08:44:14.789Z,20.21
2023-04-09T08:46:41.304Z,21.82
2023-04-09T08:49:09.522Z,21.57
2023-04-09T08:51:35.983Z,19.45
2023-04-09T08:54:04.828Z,18.18
2023-04-09T08:56:31.961Z,17.24
2023-04-09T08:58:58.592Z,16.87
2023-04-09T09:01:29.812Z,17.33
2023-04-09T09:04:07.790Z,17.75
2023-04-09T09:06:39.622Z,18.47
2023-04-09T09:09:13.602Z,20.04
2023-04-09T09:11:42.491Z,20.36
2023-04-09T09:14:14.334Z,21.81
2023-04-09T09:17:03.699Z,21.80
2023-04-09T09:19:36.352Z,21.77
2023-04-09T09:22:04.959Z,22.09
2023-04-09T09:24:35.142Z,23.26
2023-04-09T09:27:02.884Z,22.76
2023-04-09T09:29:29.838Z,21.94
2023-04-09T09:31:56.601Z,21.47
2023-04-09T09:34:24.842Z,21.38
2023-04-09T09:36:51.399Z,21.47
2023-04-09T09:39:18.066Z,19.88
2023-04-09T09:41:46.276Z,19.50
2023-04-09T09:44:29.968Z,19.70
2023-04-09T09:47:00.701Z,20.51
2023-04-09T09:49:27.145Z,21.20
2023-04-09T09:51:57.865Z,21.79
2023-04-09T09:54:25.570Z,22.67
2023-04-09T09:56:55.806Z,22.63
2023-04-09T09:59:32.005Z,23.09
2023-04-09T10:02:05.765Z,22.22
2023-04-09T10:04:36.093Z,22.85
2023-04-09T10:07:05.689Z,22.77
2023-04-09T10:09:35.821Z,23.38
2023-04-09T10:12:06.847Z,23.31
2023-04-09T10:14:35.814Z,23.19
2023-04-09T10:17:03.965Z,22.63
2023-04-09T10:19:37.602Z,22.54
2023-04-09T10:22:10.486Z,22.04
2023-04-09T10:24:37.534Z,22.73
2023-04-09T10:27:16.412Z,23.57
2023-04-09T10:29:48.105Z,23.96
2023-04-09T10:32:23.652Z,22.98
2023-04-09T10:34:50.706Z,23.28
2023-04-09T10:37:23.198Z,23.63
2023-04-09T10:39:53.317Z,24.23
2023-04-09T10:42:24.884Z,23.98
2023-04-09T10:45:11.912Z,23.90
2023-04-09T10:47:40.143Z,22.74
2023-04-09T10:50:33.233Z,23.72
2023-04-09T10:53:00.643Z,23.82
2023-04-09T10:55:40.801Z,24.39
2023-04-09T10:58:13.666Z,24.24
2023-04-09T11:00:45.424Z,23.47
2023-04-09T11:03:23.220Z,21.78
2023-04-09T11:06:05.955Z,20.23
2023-04-09T11:08:33.713Z,22.01
2023-04-09T11:11:02.073Z,23.18
2023-04-09T11:13:29.565Z,23.21
2023-04-09T11:15:56.924Z,22.21
2023-04-09T11:18:29.081Z,20.59
2023-04-09T11:21:01.028Z,20.89
2023-04-09T11:23:28.195Z,21.95
2023-04-09T11:25:55.747Z,21.82
2023-04-09T11:28:23.560Z,21.21
2023-04-09T11:30:53.188Z,20.52
2023-04-09T11:33:20.674Z,19.85
2023-04-09T11:35:47.928Z,19.30
2023-04-09T11:38:14.517Z,18.92
2023-04-09T11:40:47.861Z,19.07
2023-04-09T11:43:16.548Z,18.76
2023-04-09T11:45:43.156Z,19.00
2023-04-09T11:48:10.814Z,18.55
2023-04-09T11:50:38.190Z,17.90
2023-04-09T11:53:21.100Z,17.60
2023-04-09T11:55:51.229Z,18.35
2023-04-09T11:58:18.373Z,18.84
2023-04-09T12:00:45.448Z,18.69
2023-04-09T12:03:12.274Z,18.01
2023-04-09T12:05:41.085Z,17.45
2023-04-09T12:08:08.803Z,17.34
2023-04-09T12:10:37.993Z,16.90
2023-04-09T12:13:10.239Z,16.78
2023-04-09T12:15:38.917Z,17.11
2023-04-09T12:18:08.488Z,17.49
2023-04-09T12:20:39.730Z,17.68
2023-04-09T12:23:07.640Z,18.00
2023-04-09T12:25:42.846Z,17.75
2023-04-09T12:28:12.247Z,18.17
2023-04-09T12:30:38.711Z,18.48
2023-04-09T12:33:05.725Z,18.50
2023-04-09T12:35:32.664Z,18.37
2023-04-09T12:38:03.187Z,18.16
2023-04-09T12:40:29.655Z,18.10
2023-04-09T12:42:56.549Z,18.30
2023-04-09T12:45:23.218Z,18.59
2023-04-09T12:47:49.833Z,18.91
2023-04-09T12:50:16.667Z,18.89
2023-04-09T12:52:44.027Z,18.77
2023-04-09T12:55:11.539Z,18.91
2023-04-09T12:57:39.644Z,19.13
2023-04-09T13:00:07.735Z,19.08
2023-04-09T13:02:35.481Z,19.06
2023-04-09T13:05:02.819Z,18.92
2023-04-09T13:07:29.387Z,18.87
2023-04-09T13:09:57.037Z,18.78
2023-04-09T13:12:24.110Z,18.26
2023-04-09T13:14:54.015Z,18.33
2023-04-09T13:17:20.509Z,18.10
2023-04-09T13:19:47.100Z,18.28
2023-04-09T13:22:13.539Z,18.36
2023-04-09T13:24:40.066Z,18.35
2023-04-09T13:27:09.385Z,18.36
2023-04-09T13:29:36.137Z,18.57
2023-04-09T13:32:06.933Z,18.54
2023-04-09T13:34:34.988Z,18.47
2023-04-09T13:37:02.843Z,18.50
2023-04-09T13:39:29.455Z,18.60
2023-04-09T13:41:56.239Z,18.38
2023-04-09T13:44:24.315Z,17.84
2023-04-09T13:46:50.953Z,17.86
2023-04-09T13:49:17.702Z,18.03
2023-04-09T13:51:44.452Z,18.11
2023-04-09T13:54:11.290Z,18.09
2023-04-09T13:56:38.961Z,18.29
2023-04-09T13:59:06.324Z,18.35
2023-04-09T14:01:33.685Z,18.31
2023-04-09T14:04:00.335Z,18.14
2023-04-09T14:06:27.130Z,18.01
2023-04-09T14:08:53.771Z,18.02
2023-04-09T14:11:20.697Z,18.02
2023-04-09T14:13:47.303Z,18.08
2023-04-09T14:16:13.816Z,18.07
2023-04-09T14:18:40.302Z,17.96
2023-04-09T14:21:09.867Z,17.92
2023-04-09T14:23:36.793Z,17.91
2023-04-09T14:26:04.325Z,17.74
2023-04-09T14:28:32.010Z,17.61
2023-04-09T14:30:59.484Z,17.50
2023-04-09T14:33:26.505Z,17.58
2023-04-09T14:35:53.060Z,17.68
2023-04-09T14:38:19.587Z,17.59
2023-04-09T14:40:46.171Z,17.54
2023-04-09T14:43:12.620Z,17.62
2023-04-09T14:45:39.180Z,17.64
2023-04-09T14:48:05.812Z,17.50
2023-04-09T14:50:33.779Z,17.37
2023-04-09T14:53:01.486Z,17.32
2023-04-09T14:55:28.295Z,17.39
2023-04-09T14:57:54.962Z,17.33
2023-04-09T15:00:22.365Z,17.43
2023-04-09T15:02:49.124Z,17.38
2023-04-09T15:05:16.060Z,17.18
2023-04-09T15:07:43.617Z,17.21
2023-04-09T15:10:10.778Z,17.18
2023-04-09T15:12:37.581Z,17.24
2023-04-09T15:15:08.244Z,17.20
2023-04-09T15:17:34.798Z,17.15
2023-04-09T15:20:01.333Z,17.14
2023-04-09T15:22:27.874Z,17.08
2023-04-09T15:24:54.337Z,17.23
2023-04-09T15:27:20.969Z,17.07
2023-04-09T15:29:47.414Z,17.11
2023-04-09T15:32:13.806Z,17.15
2023-04-09T15:34:40.316Z,17.11
2023-04-09T15:37:06.804Z,16.99
2023-04-09T15:39:33.376Z,16.98
2023-04-09T15:41:59.991Z,16.94
2023-04-09T15:44:26.382Z,16.95
2023-04-09T15:46:52.967Z,17.01
2023-04-09T15:49:19.959Z,17.02
2023-04-09T15:51:46.568Z,16.86
2023-04-09T15:54:13.090Z,16.78
2023-04-09T15:56:40.358Z,16.79
2023-04-09T15:59:08.286Z,16.71
2023-04-09T16:01:36.624Z,16.61
2023-04-09T16:04:04.742Z,16.56
2023-04-09T16:06:31.745Z,16.56
2023-04-09T16:08:58.338Z,16.53
2023-04-09T16:11:24.837Z,16.57
2023-04-09T16:13:51.421Z,16.54
2023-04-09T16:16:17.998Z,16.52
2023-04-09T16:18:44.547Z,16.43
2023-04-09T16:21:11.154Z,16.41
2023-04-09T16:23:38.453Z,16.42
2023-04-09T16:26:05.735Z,16.53
2023-04-09T16:28:32.297Z,16.46
2023-04-09T16:30:59.399Z,16.48
2023-04-09T16:33:26.188Z,16.37
2023-04-09T16:35:52.906Z,16.21
2023-04-09T16:38:19.376Z,16.19
2023-04-09T16:40:45.944Z,16.18
2023-04-09T16:43:12.436Z,15.89
2023-04-09T16:45:38.866Z,15.68
2023-04-09T16:48:10.799Z,15.45
2023-04-09T16:50:38.464Z,15.31
2023-04-09T16:53:04.930Z,15.19
2023-04-09T16:55:31.432Z,15.09
2023-04-09T16:57:58.831Z,15.01
2023-04-09T17:00:25.601Z,15.47
2023-04-09T17:02:52.323Z,15.64
2023-04-09T17:05:19.172Z,15.49
2023-04-09T17:07:45.610Z,15.38
2023-04-09T17:10:12.198Z,15.21
2023-04-09T17:12:38.893Z,15.13
2023-04-09T17:15:05.737Z,15.06
2023-04-09T17:17:33.311Z,14.98
2023-04-09T17:20:01.398Z,14.81
2023-04-09T17:22:27.960Z,14.68
2023-04-09T17:24:54.434Z,14.59
2023-04-09T17:27:20.893Z,14.55
2023-04-09T17:29:47.401Z,14.50
2023-04-09T17:32:13.850Z,14.47
2023-04-09T17:34:40.353Z,14.42
2023-04-09T17:37:07.271Z,14.38
2023-04-09T17:39:33.661Z,14.32
2023-04-09T17:42:03.596Z,14.27
2023-04-09T17:44:33.389Z,14.21
2023-04-09T17:46:59.925Z,14.18
2023-04-09T17:49:29.926Z,14.13
2023-04-09T17:51:56.323Z,14.07
2023-04-09T17:54:22.783Z,14.00
2023-04-09T17:56:49.378Z,13.91
2023-04-09T17:59:15.960Z,13.83
2023-04-09T18:01:42.465Z,13.75
2023-04-09T18:04:09.459Z,13.70
2023-04-09T18:06:36.049Z,13.64
2023-04-09T18:09:02.568Z,13.56
2023-04-09T18:11:29.069Z,13.50
2023-04-09T18:13:55.716Z,13.43
2023-04-09T18:16:23.250Z,13.36
2023-04-09T18:18:49.929Z,13.30
2023-04-09T18:21:16.819Z,13.22
2023-04-09T18:23:43.350Z,13.13
2023-04-09T18:26:09.852Z,12.99
2023-04-09T18:28:36.545Z,12.94
2023-04-09T18:31:03.268Z,12.89
2023-04-09T18:33:29.728Z,12.82
2023-04-09T18:35:59.693Z,12.80
2023-04-09T18:38:28.512Z,12.76
2023-04-09T18:40:56.407Z,12.74
2023-04-09T18:43:23.021Z,12.63
2023-04-09T18:45:49.629Z,12.49
2023-04-09T18:48:16.079Z,12.41
2023-04-09T18:50:42.565Z,12.27
2023-04-09T18:53:09.103Z,12.17
2023-04-09T18:55:38.564Z,12.05
2023-04-09T18:58:08.567Z,11.97
2023-04-09T19:00:36.298Z,11.86
2023-04-09T19:03:03.153Z,11.72
2023-04-09T19:05:31.661Z,11.69
2023-04-09T19:07:59.546Z,11.64
2023-04-09T19:10:26.208Z,11.61
2023-04-09T19:12:53.800Z,11.62
2023-04-09T19:15:29.201Z,11.52
2023-04-09T19:17:56.533Z,11.46
2023-04-09T19:20:23.166Z,11.45
2023-04-09T19:22:50.257Z,11.41
2023-04-09T19:25:18.253Z,11.37
2023-04-09T19:27:45.717Z,11.27
2023-04-09T19:30:12.561Z,11.19
2023-04-09T19:32:39.709Z,11.24
2023-04-09T19:35:07.102Z,11.25
2023-04-09T19:37:34.657Z,11.18
2023-04-09T19:40:04.303Z,11.16
2023-04-09T19:42:34.551Z,11.14
2023-04-09T19:45:01.037Z,11.05
2023-04-09T19:47:28.127Z,10.98
2023-04-09T19:49:54.815Z,10.94
2023-04-09T19:52:21.559Z,10.88
2023-04-09T19:54:48.045Z,10.84
2023-04-09T19:57:15.297Z,10.72
2023-04-09T19:59:41.801Z,10.69
2023-04-09T20:02:08.385Z,10.68
2023-04-09T20:04:34.864Z,10.61
2023-04-09T20:07:01.473Z,10.54
2023-04-09T20:09:29.000Z,10.54
2023-04-09T20:11:55.506Z,10.60
2023-04-09T20:14:22.034Z,10.61
2023-04-09T20:16:48.625Z,10.63
2023-04-09T20:19:15.148Z,10.61
2023-04-09T20:21:43.534Z,10.56
2023-04-09T20:24:09.997Z,10.50
2023-04-09T20:26:36.506Z,10.46
2023-04-09T20:29:03.041Z,10.36
2023-04-09T20:31:30.776Z,10.32
2023-04-09T20:33:57.280Z,10.23
2023-04-09T20:36:23.752Z,10.21
2023-04-09T20:38:50.222Z,10.14
2023-04-09T20:41:16.668Z,10.10
2023-04-09T20:43:43.090Z,10.10
2023-04-09T20:46:09.602Z,10.08
2023-04-09T20:48:36.326Z,10.05
2023-04-09T20:51:08.553Z,10.05
2023-04-09T20:53:35.016Z,10.01
2023-04-09T20:56:02.056Z,9.97
2023-04-09T20:58:28.966Z,9.91
2023-04-09T21:01:07.237Z,9.86
2023-04-09T21:03:34.954Z,9.85
2023-04-09T21:06:02.101Z,9.85
2023-04-09T21:08:29.398Z,9.83
2023-04-09T21:10:56.240Z,9.79
2023-04-09T21:13:23.224Z,9.77
2023-04-09T21:15:49.924Z,9.74
2023-04-09T21:18:17.265Z,9.68
2023-04-09T21:20:46.085Z,9.67
2023-04-09T21:23:13.322Z,9.66
2023-04-09T21:25:39.806Z,9.65
2023-04-09T21:28:06.859Z,9.62
2023-04-09T21:30:34.098Z,9.60
2023-04-09T21:33:02.361Z,9.55
2023-04-09T21:35:28.778Z,9.56
2023-04-09T21:37:55.262Z,9.50
2023-04-09T21:40:23.252Z,9.43
2023-04-09T21:42:50.202Z,9.39
2023-04-09T21:45:18.222Z,9.31
2023-04-09T21:47:45.591Z,9.27
2023-04-09T21:50:12.001Z,9.22
2023-04-09T21:52:38.452Z,9.15
2023-04-09T21:55:05.503Z,9.09
2023-04-09T21:57:32.050Z,9.02
2023-04-09T21:59:58.693Z,8.97
2023-04-09T22:02:25.259Z,8.95
2023-04-09T22:04:51.898Z,8.92
2023-04-09T22:07:18.386Z,8.89
2023-04-09T22:09:44.855Z,8.88
2023-04-09T22:12:11.439Z,8.85
2023-04-09T22:14:39.129Z,8.82
2023-04-09T22:17:08.499Z,8.79
2023-04-09T22:19:35.125Z,8.76
2023-04-09T22:22:01.593Z,8.73
2023-04-09T22:24:29.990Z,8.71
2023-04-09T22:26:58.857Z,8.70
2023-04-09T22:29:26.216Z,8.65
2023-04-09T22:31:52.666Z,8.60
2023-04-09T22:34:21.553Z,8.59
2023-04-09T22:36:48.791Z,8.55
2023-04-09T22:39:15.683Z,8.53
2023-04-09T22:41:42.192Z,8.48
2023-04-09T22:44:09.422Z,8.46
2023-04-09T22:46:36.720Z,8.44
2023-04-09T22:49:05.622Z,8.43
2023-04-09T22:51:34.349Z,8.38
2023-04-09T22:54:01.409Z,8.34
2023-04-09T22:56:27.812Z,8.34
2023-04-09T22:58:54.494Z,8.31
2023-04-09T23:01:22.211Z,8.31
2023-04-09T23:03:50.056Z,8.31
2023-04-09T23:06:19.210Z,8.30
2023-04-09T23:08:45.695Z,8.33
2023-04-09T23:11:12.160Z,8.35
2023-04-09T23:13:38.828Z,8.36
2023-04-09T23:16:10.909Z,8.39
2023-04-09T23:18:37.794Z,8.40
2023-04-09T23:21:06.913Z,8.35
2023-04-09T23:23:34.309Z,8.38
2023-04-09T23:26:00.962Z,8.42
2023-04-09T23:28:28.185Z,8.49
2023-04-09T23:30:55.261Z,8.50
2023-04-09T23:33:21.679Z,8.55
2023-04-09T23:35:48.312Z,8.57
2023-04-09T23:38:15.527Z,8.60
2023-04-09T23:40:42.649Z,8.64
2023-04-09T23:43:09.211Z,8.66
2023-04-09T23:45:35.685Z,8.67
2023-04-09T23:48:03.276Z,8.64
2023-04-09T23:50:30.357Z,8.62
2023-04-09T23:53:03.357Z,8.65
2023-04-09T23:55:29.861Z,8.68
2023-04-09T23:57:56.454Z,8.71
